Time;durP1;ratioP1;P1;durP2;ratioP2;P2;SDS_P1;SDS_P2;PMS_P1;PMS_P2;Temp;Humidity;BMP_temperature;BMP_pressure;BME280_temperature;BME280_humidity;BME280_pressure;Samples;Min_cycle;Max_cycle;Signal;HPM_P1;HPM_P2
2022/11/07 00:01:17;;;;;;;7.10;2.72;;;;;;;10.89;78.16;100686.41;5059914;28;20103;-82
2022/11/07 00:03:42;;;;;;;7.00;3.00;;;;;;;10.89;77.99;100670.59;5071650;28;20039;-82
2022/11/07 00:06:08;;;;;;;8.70;3.05;;;;;;;10.90;77.77;100679.75;5056104;28;20377;-82
2022/11/07 00:08:33;;;;;;;6.75;3.15;;;;;;;10.90;78.11;100674.19;5041120;28;20038;-82
2022/11/07 00:11:00;;;;;;;9.07;3.05;;;;;;;10.86;78.31;100682.19;5032508;28;20094;-82
2022/11/07 00:13:26;;;;;;;6.30;3.10;;;;;;;10.88;78.18;100688.31;5032395;28;20033;-82
2022/11/07 00:15:53;;;;;;;7.13;3.05;;;;;;;10.87;78.18;100691.38;5051130;28;20024;-82
2022/11/07 00:18:18;;;;;;;6.45;2.90;;;;;;;10.87;78.22;100685.81;5072013;28;20040;-83
2022/11/07 00:20:44;;;;;;;6.03;2.92;;;;;;;10.88;78.08;100696.66;5064024;28;20029;-82
2022/11/07 00:23:12;;;;;;;5.90;2.80;;;;;;;10.88;78.36;100693.03;5052148;28;20531;-83
2022/11/07 00:25:37;;;;;;;8.23;3.42;;;;;;;10.86;78.30;100695.25;5067232;28;20051;-83
2022/11/07 00:28:03;;;;;;;11.00;3.20;;;;;;;10.86;78.14;100692.47;5065685;28;20073;-83
2022/11/07 00:30:31;;;;;;;7.80;3.10;;;;;;;10.84;78.25;100692.72;5050441;28;20033;-83
2022/11/07 00:32:56;;;;;;;8.93;3.28;;;;;;;10.83;78.08;100691.03;5050720;28;20025;-82
2022/11/07 00:35:21;;;;;;;10.50;3.00;;;;;;;10.84;78.33;100695.50;5050559;28;20021;-82
2022/11/07 00:37:49;;;;;;;10.95;3.03;;;;;;;10.84;78.63;100694.66;5050739;28;20052;-82
2022/11/07 00:40:14;;;;;;;8.93;3.08;;;;;;;10.83;78.36;100693.81;5031588;28;20049;-82
2022/11/07 00:42:39;;;;;;;8.35;2.70;;;;;;;10.83;78.01;100696.59;5030747;28;20025;-82
2022/11/07 00:45:06;;;;;;;9.15;2.65;;;;;;;10.81;78.29;100691.31;5031557;28;20476;-81
2022/11/07 00:47:34;;;;;;;7.80;2.90;;;;;;;10.83;78.15;100693.81;5030996;28;20037;-82
2022/11/07 00:49:59;;;;;;;7.40;3.00;;;;;;;10.82;78.44;100703.25;5031943;28;20033;-82
2022/11/07 00:52:25;;;;;;;6.70;2.80;;;;;;;10.77;78.36;100705.97;5031351;28;20034;-82
2022/11/07 00:54:50;;;;;;;9.25;3.00;;;;;;;10.76;78.68;100707.88;5044225;28;20020;-82
2022/11/07 00:57:16;;;;;;;7.57;3.05;;;;;;;10.75;78.58;100711.75;5043280;28;20040;-82
2022/11/07 00:59:41;;;;;;;9.80;3.13;;;;;;;10.77;78.42;100714.31;5032649;28;20025;-82
2022/11/07 01:02:06;;;;;;;7.72;3.25;;;;;;;10.77;78.23;100714.31;5036119;28;20033;-82
2022/11/07 01:07:15;;;;;;;7.85;2.53;;;;;;;10.77;78.55;100708.75;5039371;28;20392;-82
2022/11/07 01:09:40;;;;;;;6.78;2.70;;;;;;;10.79;78.58;100709.31;5041613;28;20030;-82
2022/11/07 01:12:06;;;;;;;8.63;3.08;;;;;;;10.79;78.63;100712.09;5044360;28;20064;-81
2022/11/07 01:14:31;;;;;;;8.13;3.38;;;;;;;10.78;78.53;100719.59;5034856;28;20025;-82
2022/11/07 01:16:57;;;;;;;9.40;3.30;;;;;;;10.77;78.62;100723.47;5035220;28;20029;-82
2022/11/07 01:19:22;;;;;;;8.10;2.83;;;;;;;10.77;78.74;100726.25;5044581;28;20037;-82
2022/11/07 01:21:47;;;;;;;7.03;3.35;;;;;;;10.79;78.80;100725.97;5040915;28;20053;-81
2022/11/07 01:24:14;;;;;;;6.68;2.78;;;;;;;10.78;78.94;100738.19;5040222;28;20422;-82
2022/11/07 01:26:41;;;;;;;6.82;2.78;;;;;;;10.80;78.67;100730.41;5064302;28;20067;-80
2022/11/07 01:29:07;;;;;;;8.20;2.88;;;;;;;10.82;78.81;100739.34;5031855;28;20037;-82
2022/11/07 01:31:33;;;;;;;7.90;3.30;;;;;;;10.83;78.58;100735.47;5044411;28;20104;-82
2022/11/07 01:33:59;;;;;;;5.03;2.65;;;;;;;10.85;78.65;100736.06;5054007;28;20171;-82
2022/11/07 01:36:24;;;;;;;8.85;3.30;;;;;;;10.82;78.59;100734.63;5054429;28;20048;-81
2022/11/07 01:38:50;;;;;;;10.35;2.88;;;;;;;10.82;78.75;100733.78;5050814;28;20025;-82
2022/11/07 01:41:24;;;;;;;7.95;2.90;;;;;;;10.85;78.77;100741.63;5041496;28;20448;-81
2022/11/07 01:43:52;;;;;;;5.00;3.10;;;;;;;10.85;78.84;100738.00;5048901;28;20029;-81
2022/11/07 01:46:19;;;;;;;8.18;3.20;;;;;;;10.89;78.64;100744.72;5052314;28;20067;-82
2022/11/07 01:48:57;;;;;;;6.13;2.70;;;;;;;10.91;78.27;100729.47;5052660;28;20059;-82
2022/11/07 01:51:23;;;;;;;7.63;3.05;;;;;;;10.87;79.08;100747.72;5052428;28;20119;-82
2022/11/07 01:53:51;;;;;;;8.95;2.70;;;;;;;10.88;78.77;100738.31;5049169;28;20025;-82
2022/11/07 01:56:20;;;;;;;8.48;2.90;;;;;;;10.90;78.99;100740.84;5043347;28;20033;-82
2022/11/07 01:58:46;;;;;;;6.85;2.70;;;;;;;10.90;78.89;100738.06;5033465;28;20032;-82
2022/11/07 02:01:13;;;;;;;7.45;2.67;;;;;;;10.90;78.75;100749.16;5040729;28;20022;-82
2022/11/07 02:03:38;;;;;;;7.32;2.95;;;;;;;10.89;78.93;100744.72;5052956;28;20635;-82
2022/11/07 02:06:12;;;;;;;9.02;2.97;;;;;;;10.90;79.37;100751.94;5052570;28;20025;-82
2022/11/07 02:08:39;;;;;;;9.40;2.97;;;;;;;10.89;79.14;100745.56;5053424;28;20037;-81
2022/11/07 02:11:10;;;;;;;9.15;3.13;;;;;;;10.90;79.22;100755.56;5053659;28;20033;-81
2022/11/07 02:13:35;;;;;;;6.18;2.70;;;;;;;10.91;79.16;100748.91;5073416;28;20024;-82
2022/11/07 02:16:03;;;;;;;10.80;3.08;;;;;;;10.91;79.40;100751.66;5071972;28;20601;-82
2022/11/07 02:18:29;;;;;;;8.40;3.05;;;;;;;10.93;79.14;100757.00;5073661;28;20028;-82
2022/11/07 02:21:07;;;;;;;7.85;3.00;;;;;;;10.94;79.19;100753.09;5063564;28;20490;-82
2022/11/07 02:23:48;;;;;;;8.18;3.03;;;;;;;10.94;79.46;100747.56;5064323;28;20486;-82
2022/11/07 02:26:14;;;;;;;9.93;3.33;;;;;;;10.93;79.29;100746.72;5037808;28;20471;-82
2022/11/07 02:28:40;;;;;;;9.40;3.30;;;;;;;10.97;79.21;100744.25;5050449;28;20070;-82
2022/11/07 02:31:05;;;;;;;5.75;2.50;;;;;;;10.98;79.33;100748.72;5053216;28;20373;-82
2022/11/07 02:33:30;;;;;;;8.10;2.88;;;;;;;10.99;78.85;100745.66;5052265;28;20017;-81
2022/11/07 02:35:56;;;;;;;9.07;2.88;;;;;;;11.00;79.08;100754.84;5062180;28;20590;-81
2022/11/07 02:38:31;;;;;;;11.05;2.88;;;;;;;10.98;79.14;100757.03;5073517;28;20566;-81
2022/11/07 02:41:00;;;;;;;9.52;2.70;;;;;;;10.96;79.35;100746.19;5058255;28;20025;-81
2022/11/07 02:43:27;;;;;;;8.32;2.58;;;;;;;10.96;79.59;100750.91;5032142;28;20109;-81
2022/11/07 02:45:56;;;;;;;7.65;2.80;;;;;;;10.97;79.62;100742.31;5034083;28;20029;-81
2022/11/07 02:48:21;;;;;;;9.82;3.05;;;;;;;10.98;79.75;100745.94;5033510;28;20030;-81
2022/11/07 02:50:46;;;;;;;8.63;2.67;;;;;;;10.99;79.29;100748.44;5037986;28;20037;-82
2022/11/07 02:53:12;;;;;;;8.70;2.83;;;;;;;11.00;78.82;100746.50;5047665;28;20033;-81
2022/11/07 02:55:37;;;;;;;8.63;3.10;;;;;;;10.97;79.60;100750.66;5062179;28;20024;-81
2022/11/07 02:58:04;;;;;;;8.02;3.13;;;;;;;10.93;79.60;100741.16;5052416;28;20040;-82
2022/11/07 03:00:29;;;;;;;11.57;3.60;;;;;;;10.92;79.80;100733.91;5053052;28;20017;-82
2022/11/07 03:02:54;;;;;;;10.68;3.00;;;;;;;10.89;80.12;100733.59;5052080;28;20031;-81
2022/11/07 03:05:20;;;;;;;10.63;3.53;;;;;;;10.89;79.96;100748.34;5054091;28;20029;-82
2022/11/07 03:07:47;;;;;;;12.70;3.55;;;;;;;10.87;79.98;100728.28;5036752;28;20043;-82
2022/11/07 03:10:14;;;;;;;8.68;3.40;;;;;;;10.84;80.31;100745.47;5038289;28;20594;-82
2022/11/07 03:12:39;;;;;;;11.07;2.97;;;;;;;10.87;80.21;100736.63;5040348;28;20037;-81
2022/11/07 03:15:06;;;;;;;9.45;2.75;;;;;;;10.87;80.10;100742.19;5032815;28;20056;-82
2022/11/07 03:17:31;;;;;;;13.15;3.25;;;;;;;10.87;80.28;100749.69;5032296;28;20029;-82
2022/11/07 03:19:57;;;;;;;10.93;3.20;;;;;;;10.86;80.38;100753.56;5032283;28;20127;-82
2022/11/07 03:22:22;;;;;;;8.82;2.90;;;;;;;10.83;80.42;100749.34;5053559;28;20143;-82
2022/11/07 03:24:48;;;;;;;10.13;3.10;;;;;;;10.87;80.30;100746.91;5071418;28;20032;-82
2022/11/07 03:27:14;;;;;;;10.57;2.90;;;;;;;10.83;80.23;100743.78;5037983;28;20041;-82
2022/11/07 03:29:39;;;;;;;12.35;3.17;;;;;;;10.86;80.40;100745.22;5033281;28;20030;-82
2022/11/07 03:32:05;;;;;;;14.45;3.17;;;;;;;10.85;80.37;100744.38;5031771;28;20033;-82
2022/11/07 03:34:30;;;;;;;9.35;2.88;;;;;;;10.85;80.04;100738.84;5032319;28;20037;-81
2022/11/07 03:36:58;;;;;;;11.98;3.30;;;;;;;10.84;80.46;100741.84;5036674;28;20061;-81
2022/11/07 03:39:24;;;;;;;13.27;3.35;;;;;;;10.85;80.40;100738.84;5053451;28;20033;-80
2022/11/07 03:41:49;;;;;;;9.50;2.80;;;;;;;10.84;80.71;100741.84;5034091;28;20032;-80
2022/11/07 03:44:14;;;;;;;14.15;2.88;;;;;;;10.87;80.47;100746.91;5032005;28;20061;-81
2022/11/07 03:46:40;;;;;;;11.18;2.67;;;;;;;10.85;80.72;100747.16;5031611;28;20079;-81
2022/11/07 03:49:05;;;;;;;10.63;2.88;;;;;;;10.86;80.66;100743.28;5033008;28;20036;-81
2022/11/07 03:51:30;;;;;;;12.70;3.03;;;;;;;10.90;80.49;100746.38;5044577;28;20118;-81
2022/11/07 03:53:58;;;;;;;14.52;3.22;;;;;;;10.93;80.40;100752.28;5062906;28;20375;-81
2022/11/07 03:56:24;;;;;;;15.07;3.47;;;;;;;10.97;80.05;100747.03;5045990;28;20037;-81
2022/11/07 03:58:49;;;;;;;15.18;3.17;;;;;;;10.97;80.10;100753.44;5051015;28;20036;-81
2022/11/07 04:01:14;;;;;;;9.60;3.50;;;;;;;10.97;80.18;100745.09;5051548;28;20097;-81
2022/11/07 04:03:39;;;;;;;11.27;2.92;;;;;;;10.96;80.40;100735.06;5051775;28;20472;-82
2022/11/07 04:06:05;;;;;;;15.55;3.33;;;;;;;10.96;80.31;100739.78;5044121;28;20108;-81
2022/11/07 04:08:30;;;;;;;12.52;3.30;;;;;;;10.98;80.07;100738.44;5050533;28;20024;-81
2022/11/07 04:10:56;;;;;;;12.50;3.00;;;;;;;10.98;80.40;100749.53;5071827;28;20025;-81
2022/11/07 04:19:27;;;;;;;13.32;3.17;;;;;;;11.00;80.12;100749.28;5030079;28;20119;-81
2022/11/07 04:21:52;;;;;;;10.50;3.03;;;;;;;11.01;79.98;100756.53;5030363;28;20481;-82
2022/11/07 04:24:17;;;;;;;11.43;2.75;;;;;;;11.03;80.12;100746.00;5066117;28;20028;-82
2022/11/07 04:29:27;;;;;;;11.18;2.75;;;;;;;11.06;79.85;100748.25;5031676;28;20797;-81
2022/11/07 04:31:52;;;;;;;14.55;3.10;;;;;;;11.03;79.65;100746.00;5031652;28;20025;-81
2022/11/07 04:34:17;;;;;;;14.25;3.17;;;;;;;10.99;79.80;100756.78;5045478;28;20029;-80
2022/11/07 04:36:42;;;;;;;13.13;3.05;;;;;;;11.03;79.66;100749.59;5040959;28;20095;-81
2022/11/07 04:39:10;;;;;;;15.05;3.28;;;;;;;11.00;79.75;100757.59;5048413;28;20420;-81
2022/11/07 04:41:35;;;;;;;13.90;2.80;;;;;;;11.01;79.72;100762.94;5033981;28;20125;-81
2022/11/07 04:44:01;;;;;;;11.65;2.97;;;;;;;10.99;79.80;100758.72;5035176;28;20112;-81
2022/11/07 04:46:26;;;;;;;12.65;3.08;;;;;;;11.00;79.53;100752.91;5044248;28;20029;-81
2022/11/07 04:48:51;;;;;;;12.65;2.83;;;;;;;11.02;79.59;100750.72;5054275;28;20025;-81
2022/11/07 04:51:20;;;;;;;12.65;2.97;;;;;;;11.03;79.75;100763.50;5044914;28;20479;-81
2022/11/07 04:53:46;;;;;;;11.15;2.53;;;;;;;11.06;79.69;100754.66;5067441;28;20153;-81
2022/11/07 04:56:11;;;;;;;10.40;3.15;;;;;;;11.08;79.34;100759.94;5070945;28;20050;-81
2022/11/07 04:58:36;;;;;;;11.13;3.13;;;;;;;11.05;79.46;100761.31;5074098;28;20032;-80
2022/11/07 05:01:02;;;;;;;12.38;2.65;;;;;;;11.06;79.67;100759.38;5065895;28;20532;-81
2022/11/07 05:03:27;;;;;;;14.80;3.45;;;;;;;11.07;79.37;100758.25;5053818;28;20104;-81
2022/11/07 05:05:52;;;;;;;11.63;2.92;;;;;;;11.07;79.53;100758.25;5054502;28;20063;-82
2022/11/07 05:08:17;;;;;;;10.90;3.30;;;;;;;11.06;79.62;100762.16;5054607;28;20116;-82
2022/11/07 05:10:43;;;;;;;10.95;2.67;;;;;;;11.07;79.40;100766.59;5046589;28;20022;-82
2022/11/07 05:13:08;;;;;;;11.75;2.88;;;;;;;11.09;79.42;100763.56;5034629;28;20099;-82
2022/11/07 05:15:33;;;;;;;14.70;3.20;;;;;;;11.11;79.19;100764.13;5034887;28;20120;-81
2022/11/07 05:17:59;;;;;;;15.57;2.90;;;;;;;11.10;79.50;100771.63;5042120;28;20028;-82
2022/11/07 05:20:29;;;;;;;15.73;3.10;;;;;;;11.10;79.38;100773.59;5053588;28;20426;-82
2022/11/07 05:26:00;;;;;;;12.13;2.78;;;;;;;11.12;78.91;100774.16;5058833;28;20043;-81
2022/11/07 05:28:29;;;;;;;9.18;2.67;;;;;;;11.12;78.87;100765.81;5064390;28;20045;-81
2022/11/07 05:30:59;;;;;;;10.57;3.03;;;;;;;11.12;78.84;100776.91;5034035;28;20033;-82
2022/11/07 05:33:24;;;;;;;13.75;3.22;;;;;;;11.15;78.74;100776.41;5034368;28;20064;-81
2022/11/07 05:35:49;;;;;;;18.60;3.28;;;;;;;11.15;78.74;100768.91;5033907;28;20534;-81
2022/11/07 05:38:15;;;;;;;16.23;3.58;;;;;;;11.17;78.82;100786.19;5032658;28;20436;-80
2022/11/07 05:40:40;;;;;;;13.45;3.28;;;;;;;11.20;78.64;100782.88;5047774;28;20039;-81
2022/11/07 05:43:08;;;;;;;11.45;2.90;;;;;;;11.18;78.68;100778.69;5033641;28;20025;-81
2022/11/07 05:45:36;;;;;;;11.05;3.00;;;;;;;11.17;78.58;100771.44;5032967;28;20029;-81
2022/11/07 05:48:12;;;;;;;15.73;3.00;;;;;;;11.16;78.73;100778.94;5033234;28;20063;-81
2022/11/07 05:50:39;;;;;;;13.55;3.00;;;;;;;11.15;78.80;100771.69;5052318;28;20115;-81
2022/11/07 05:53:05;;;;;;;14.88;3.20;;;;;;;11.17;78.57;100763.13;5053482;28;20054;-81
2022/11/07 05:55:31;;;;;;;13.63;2.83;;;;;;;11.20;78.46;100782.03;5043367;28;20033;-81
2022/11/07 05:57:56;;;;;;;14.07;2.70;;;;;;;11.20;78.45;100777.34;5050306;28;20392;-81
2022/11/07 06:00:22;;;;;;;16.67;3.90;;;;;;;11.20;78.58;100773.69;5051249;28;20068;-81
2022/11/07 06:03:01;;;;;;;16.65;3.45;;;;;;;11.21;78.97;100775.38;5066359;28;20036;-81
2022/11/07 06:05:27;;;;;;;16.73;3.35;;;;;;;11.21;78.64;100779.00;5073278;28;20383;-81
2022/11/07 06:07:53;;;;;;;17.83;3.25;;;;;;;11.19;78.65;100770.06;5038214;28;20037;-81
2022/11/07 06:10:19;;;;;;;17.33;3.50;;;;;;;11.20;79.01;100769.00;5037867;28;20106;-81
2022/11/07 06:12:44;;;;;;;11.00;2.95;;;;;;;11.18;79.39;100771.19;5052512;28;20116;-81
2022/11/07 06:15:10;;;;;;;13.43;2.80;;;;;;;11.19;78.87;100783.97;5053425;28;20027;-81
2022/11/07 06:17:35;;;;;;;14.80;2.92;;;;;;;11.22;78.94;100774.28;5070360;28;20039;-81
2022/11/07 06:20:01;;;;;;;14.07;3.13;;;;;;;11.25;78.56;100771.81;5064281;28;20445;-81
2022/11/07 06:22:26;;;;;;;17.13;3.28;;;;;;;11.26;78.79;100778.22;5033922;28;20045;-80
2022/11/07 06:24:51;;;;;;;12.98;3.20;;;;;;;11.27;78.79;100779.91;5033747;28;20381;-81
2022/11/07 06:27:17;;;;;;;16.13;3.47;;;;;;;11.22;78.86;100774.28;5031453;28;20116;-80
2022/11/07 06:29:42;;;;;;;14.90;3.13;;;;;;;11.19;78.94;100777.56;5048761;28;20032;-81
2022/11/07 06:32:07;;;;;;;14.15;3.28;;;;;;;11.21;78.80;100780.94;5047310;28;20065;-81
2022/11/07 06:34:33;;;;;;;17.30;3.10;;;;;;;11.24;78.83;100780.44;5031709;28;20385;-81
2022/11/07 06:36:58;;;;;;;14.48;3.22;;;;;;;11.24;79.07;100786.81;5032297;28;20121;-80
2022/11/07 06:39:23;;;;;;;11.98;2.83;;;;;;;11.28;78.67;100799.09;5033708;28;20565;-81
2022/11/07 06:41:48;;;;;;;14.32;3.00;;;;;;;11.30;78.73;100790.50;5037551;28;20029;-81
2022/11/07 06:44:15;;;;;;;14.85;3.15;;;;;;;11.30;78.94;100785.78;5052118;28;20558;-81
2022/11/07 06:46:40;;;;;;;12.40;2.67;;;;;;;11.30;78.93;100784.94;5048590;28;20123;-81
2022/11/07 06:49:05;;;;;;;12.93;3.03;;;;;;;11.31;78.63;100797.72;5051307;28;20298;-81
2022/11/07 06:51:31;;;;;;;10.82;2.75;;;;;;;11.34;78.75;100802.78;5055885;28;20082;-81
2022/11/07 06:53:56;;;;;;;15.38;3.33;;;;;;;11.34;78.96;100807.50;5035416;28;20382;-81
2022/11/07 06:56:22;;;;;;;12.63;3.03;;;;;;;11.30;79.00;100804.38;5044341;28;20087;-81
2022/11/07 06:58:48;;;;;;;8.18;2.78;;;;;;;11.34;78.69;100810.28;5061909;28;20111;-80
2022/11/07 07:01:13;;;;;;;17.20;3.17;;;;;;;11.33;79.31;100812.22;5051234;28;20120;-80
2022/11/07 07:03:40;;;;;;;13.45;3.20;;;;;;;11.35;79.05;100811.94;5041733;28;20047;-80
2022/11/07 07:06:10;;;;;;;17.27;3.20;;;;;;;11.35;79.20;100815.56;5050706;28;20037;-79
2022/11/07 07:08:35;;;;;;;12.68;3.00;;;;;;;11.38;79.00;100808.66;5055338;28;20056;-79
2022/11/07 07:11:03;;;;;;;13.82;3.33;;;;;;;11.39;79.02;100821.44;5046650;28;20025;-80
2022/11/07 07:13:28;;;;;;;11.15;2.85;;;;;;;11.40;79.13;100826.75;5032519;28;20025;-81
2022/11/07 07:15:55;;;;;;;14.80;3.15;;;;;;;11.41;79.23;100820.09;5032213;28;20037;-81
2022/11/07 07:18:21;;;;;;;14.38;3.35;;;;;;;11.43;78.92;100822.59;5031591;28;20057;-80
2022/11/07 07:20:47;;;;;;;14.77;3.42;;;;;;;11.44;79.06;100825.13;5036500;28;20052;-80
2022/11/07 07:23:12;;;;;;;16.65;3.05;;;;;;;11.46;79.09;100836.81;5049504;28;20033;-80
2022/11/07 07:25:38;;;;;;;17.02;3.28;;;;;;;11.46;78.87;100839.59;5051543;28;20021;-81
2022/11/07 07:28:03;;;;;;;14.15;3.20;;;;;;;11.47;79.22;100830.16;5051517;28;20115;-81
2022/11/07 07:30:28;;;;;;;11.63;3.30;;;;;;;11.50;78.61;100835.19;5053557;28;20021;-81
2022/11/07 07:32:54;;;;;;;15.93;3.15;;;;;;;11.51;79.05;100836.03;5041158;28;20809;-81
2022/11/07 07:35:20;;;;;;;13.15;2.65;;;;;;;11.54;78.75;100841.06;5036689;28;20033;-80
2022/11/07 07:37:52;;;;;;;11.80;2.83;;;;;;;11.55;78.60;100835.28;5046313;28;20037;-80
2022/11/07 07:40:19;;;;;;;12.52;2.90;;;;;;;11.56;78.77;100847.22;5047145;28;20160;-81
2022/11/07 07:42:45;;;;;;;16.67;2.95;;;;;;;11.59;79.13;100845.84;5045579;28;20060;-81
2022/11/07 07:45:13;;;;;;;12.77;3.28;;;;;;;11.61;79.09;100846.44;5043288;28;20116;-81
2022/11/07 07:47:39;;;;;;;14.05;3.25;;;;;;;11.62;79.11;100848.13;5043628;28;20045;-69
2022/11/07 07:50:09;;;;;;;15.45;3.30;;;;;;;11.63;79.37;100864.56;5041529;28;20028;-64
2022/11/07 07:52:35;;;;;;;8.38;2.40;;;;;;;11.64;79.35;100857.06;5037895;28;20021;-76
2022/11/07 07:55:00;;;;;;;12.07;2.75;;;;;;;11.66;79.21;100866.78;5048757;28;20033;-77
2022/11/07 07:57:25;;;;;;;16.92;2.92;;;;;;;11.67;79.30;100868.50;5045573;28;20033;-72
2022/11/07 07:59:56;;;;;;;10.50;2.78;;;;;;;11.69;79.64;100869.06;5034457;28;20017;-76
2022/11/07 08:02:26;;;;;;;13.68;3.05;;;;;;;11.72;79.36;100882.44;5052396;28;20032;-73
2022/11/07 08:04:51;;;;;;;13.70;2.97;;;;;;;11.74;79.93;100868.28;5050313;28;20415;-73
2022/11/07 08:07:16;;;;;;;14.68;2.78;;;;;;;11.79;79.76;100860.00;5042675;28;20032;-73
2022/11/07 08:09:42;;;;;;;11.68;2.90;;;;;;;11.82;79.74;100867.81;5046037;28;20029;-73
2022/11/07 08:12:10;;;;;;;6.70;2.60;;;;;;;11.85;79.63;100875.66;5060728;28;20123;-71
2022/11/07 08:14:38;;;;;;;13.65;2.63;;;;;;;11.85;79.39;100864.53;5039348;28;20050;-70
2022/11/07 08:17:03;;;;;;;13.43;2.92;;;;;;;11.89;79.25;100864.88;5031222;28;20421;-64
2022/11/07 08:19:28;;;;;;;9.82;2.70;;;;;;;11.90;79.35;100864.59;5033594;28;20032;-62
2022/11/07 08:21:54;;;;;;;15.00;3.00;;;;;;;11.92;79.52;100859.63;5044301;28;20558;-62
2022/11/07 08:24:19;;;;;;;14.20;3.22;;;;;;;11.93;79.99;100869.63;5035046;28;20041;-73
2022/11/07 08:26:44;;;;;;;13.00;2.80;;;;;;;11.95;79.95;100870.22;5045531;28;20041;-74
2022/11/07 08:29:10;;;;;;;16.55;3.38;;;;;;;11.97;79.37;100870.78;5031379;28;20477;-74
2022/11/07 08:31:35;;;;;;;15.90;3.22;;;;;;;11.98;79.92;100878.03;5040527;28;20472;-73
2022/11/07 08:34:01;;;;;;;15.18;3.33;;;;;;;11.97;79.61;100878.31;5043690;28;20115;-72
2022/11/07 08:36:27;;;;;;;13.15;2.97;;;;;;;11.96;79.99;100887.75;5049354;28;20515;-76
2022/11/07 08:38:52;;;;;;;16.27;3.22;;;;;;;11.97;79.71;100890.25;5046048;28;20103;-71
2022/11/07 08:41:18;;;;;;;10.15;2.70;;;;;;;11.98;79.98;100885.53;5052914;28;20036;-72
2022/11/07 08:43:44;;;;;;;12.70;2.75;;;;;;;11.99;79.59;100888.06;5050269;28;20029;-76
2022/11/07 08:46:09;;;;;;;12.93;2.67;;;;;;;12.03;79.45;100888.41;5047734;28;20029;-75
2022/11/07 08:48:35;;;;;;;14.63;2.90;;;;;;;12.05;79.67;100897.31;5035852;28;20095;-71
2022/11/07 08:51:03;;;;;;;13.20;2.85;;;;;;;12.32;83.79;100902.03;5059732;28;20052;-71
2022/11/07 08:53:29;;;;;;;12.98;2.97;;;;;;;12.43;80.38;100890.72;5063173;28;20032;-72
2022/11/07 08:56:07;;;;;;;13.98;2.78;;;;;;;12.51;79.10;100908.91;5052418;28;20036;-72
2022/11/07 08:58:32;;;;;;;13.65;3.17;;;;;;;12.45;78.75;100913.56;5049752;28;20663;-73
2022/11/07 09:00:58;;;;;;;12.43;2.97;;;;;;;12.43;78.86;100910.22;5045542;28;20036;-73
2022/11/07 09:03:24;;;;;;;12.82;2.53;;;;;;;12.39;78.85;100916.59;5039454;28;20477;-73
2022/11/07 09:05:49;;;;;;;10.05;2.78;;;;;;;12.37;78.99;100916.81;5040837;28;20396;-72
2022/11/07 09:08:15;;;;;;;13.32;2.80;;;;;;;12.34;78.84;100925.72;5032737;28;20037;-72
2022/11/07 09:10:40;;;;;;;14.30;3.53;;;;;;;12.33;79.17;100925.97;5068444;28;20055;-72
2022/11/07 09:13:06;;;;;;;10.75;2.75;;;;;;;12.32;79.09;100933.47;5049933;28;20025;-72
2022/11/07 09:15:37;;;;;;;15.18;3.08;;;;;;;12.31;79.40;100923.47;5049025;28;20033;-73
2022/11/07 09:18:04;;;;;;;9.10;2.45;;;;;;;12.61;82.26;100927.63;5046324;28;20103;-73
2022/11/07 09:20:30;;;;;;;14.85;2.85;;;;;;;12.53;79.78;100926.16;5035501;28;20025;-72
2022/11/07 09:22:56;;;;;;;154.63;14.52;;;;;;;12.56;79.61;100931.22;5041552;28;20092;-77
2022/11/07 09:25:22;;;;;;;39.58;4.45;;;;;;;12.55;78.81;100935.09;5046098;28;20033;-75
2022/11/07 09:27:50;;;;;;;18.95;3.10;;;;;;;12.51;78.23;100932.00;5047977;28;20087;-73
2022/11/07 09:30:16;;;;;;;11.05;2.75;;;;;;;12.48;78.54;100945.63;5046475;28;20055;-71
2022/11/07 09:32:41;;;;;;;10.65;2.83;;;;;;;12.46;78.68;100931.97;5043305;28;20934;-71
2022/11/07 09:35:07;;;;;;;14.02;2.92;;;;;;;12.45;78.72;100941.41;5065256;28;20032;-72
2022/11/07 09:37:32;;;;;;;14.85;3.15;;;;;;;12.44;79.19;100934.16;5048551;28;20045;-72
2022/11/07 09:39:57;;;;;;;19.10;2.90;;;;;;;12.43;79.20;100938.06;5047682;28;20037;-71
2022/11/07 09:42:47;;;;;;;13.80;3.33;;;;;;;12.43;79.06;100938.06;5034910;28;20040;-72
2022/11/07 09:45:13;;;;;;;12.43;3.22;;;;;;;12.43;78.94;100940.00;5044769;28;20113;-73
2022/11/07 09:47:50;;;;;;;13.13;3.15;;;;;;;12.43;79.13;100946.41;5044035;28;20033;-77
2022/11/07 09:50:33;;;;;;;11.52;2.90;;;;;;;12.45;79.10;100941.41;5057336;28;20043;-75
2022/11/07 09:53:15;;;;;;;12.45;2.83;;;;;;;12.45;79.17;100941.41;5053906;28;20121;-75
2022/11/07 09:55:50;;;;;;;12.52;2.90;;;;;;;12.47;78.92;100947.56;5053453;28;20032;-73
2022/11/07 09:58:32;;;;;;;16.63;3.30;;;;;;;12.48;79.09;100943.66;5044370;28;20419;-72
2022/11/07 10:01:07;;;;;;;14.32;3.03;;;;;;;12.48;79.27;100946.44;5052682;28;20029;-77
2022/11/07 10:03:35;;;;;;;11.15;2.58;;;;;;;12.50;79.22;100943.41;5036451;28;20028;-73
2022/11/07 10:06:21;;;;;;;9.95;2.72;;;;;;;12.52;78.70;100947.59;5041037;28;20567;-71
2022/11/07 10:09:05;;;;;;;10.45;2.90;;;;;;;12.56;79.29;100944.28;5046603;28;20029;-70
2022/11/07 10:11:36;;;;;;;15.25;3.45;;;;;;;12.57;79.41;100949.59;5043113;28;20040;-72
2022/11/07 10:14:17;;;;;;;11.25;2.63;;;;;;;12.59;79.14;100952.13;5045687;28;20047;-72
2022/11/07 10:17:03;;;;;;;13.00;2.67;;;;;;;12.59;78.54;100958.53;5052208;28;20041;-71
2022/11/07 10:19:38;;;;;;;13.82;3.72;;;;;;;12.63;79.13;100958.84;5051656;28;20033;-69
2022/11/07 10:22:31;;;;;;;18.45;3.50;;;;;;;12.63;78.61;100964.41;5036063;28;20065;-71
2022/11/07 10:25:02;;;;;;;14.82;3.10;;;;;;;12.64;78.68;100961.34;5031966;28;20136;-70
2022/11/07 10:27:28;;;;;;;12.90;2.47;;;;;;;12.67;78.13;100960.00;5038832;28;20480;-69
2022/11/07 10:29:54;;;;;;;15.63;3.30;;;;;;;12.68;78.20;100956.94;5046438;28;20049;-76
2022/11/07 10:32:23;;;;;;;9.10;2.50;;;;;;;12.69;77.80;100941.94;5031982;28;20022;-73
2022/11/07 10:34:55;;;;;;;12.52;2.65;;;;;;;12.72;77.73;100958.09;5031900;28;20030;-73
2022/11/07 10:37:23;;;;;;;13.50;2.50;;;;;;;12.74;78.01;100964.25;5031609;28;20044;-75
2022/11/07 10:39:48;;;;;;;14.57;3.20;;;;;;;12.76;77.94;100958.41;5048661;28;20039;-74
2022/11/07 10:42:19;;;;;;;12.20;2.75;;;;;;;12.78;77.44;100970.97;5041038;28;20025;-76
2022/11/07 10:44:49;;;;;;;15.13;2.78;;;;;;;12.82;77.65;100979.63;5033984;28;20079;-74
2022/11/07 10:47:23;;;;;;;15.00;3.00;;;;;;;12.85;77.81;100987.47;5037449;28;20033;-74
2022/11/07 10:49:57;;;;;;;15.52;2.80;;;;;;;12.90;77.40;100975.53;5045185;28;20031;-75
2022/11/07 10:52:23;;;;;;;10.27;2.95;;;;;;;12.93;77.38;100978.63;5041728;28;20029;-75
2022/11/07 10:54:49;;;;;;;9.15;2.25;;;;;;;12.94;76.63;100977.50;5050828;28;20076;-71
2022/11/07 10:57:19;;;;;;;15.57;2.78;;;;;;;12.97;76.92;100987.28;5037218;28;20528;-71
2022/11/07 10:59:58;;;;;;;11.95;2.80;;;;;;;13.01;77.23;100980.91;5047329;28;20358;-70
2022/11/07 11:02:44;;;;;;;14.73;2.90;;;;;;;13.04;76.64;100987.88;5041542;28;20040;-72
2022/11/07 11:05:21;;;;;;;15.32;2.60;;;;;;;13.06;76.04;100996.00;5035575;28;20021;-72
2022/11/07 11:07:47;;;;;;;14.02;3.13;;;;;;;13.07;77.08;100987.34;5031739;28;20037;-74
2022/11/07 11:10:19;;;;;;;13.13;2.90;;;;;;;13.07;76.27;100983.72;5047548;28;20040;-76
2022/11/07 11:12:46;;;;;;;12.10;2.83;;;;;;;13.06;76.13;100987.63;5038923;28;20464;-77
2022/11/07 11:15:14;;;;;;;14.05;2.72;;;;;;;13.09;76.00;100975.97;5040827;28;20507;-75
2022/11/07 11:17:40;;;;;;;14.45;2.78;;;;;;;13.10;76.23;100972.06;5049326;28;20423;-60
2022/11/07 11:20:24;;;;;;;15.43;3.22;;;;;;;13.11;76.29;100976.50;5035633;28;20057;-71
2022/11/07 11:22:52;;;;;;;15.93;3.15;;;;;;;13.11;75.88;100976.50;5038649;28;20119;-74
2022/11/07 11:25:19;;;;;;;16.23;2.92;;;;;;;13.11;75.54;100963.41;5039995;28;20163;-72
2022/11/07 11:27:47;;;;;;;15.30;3.55;;;;;;;13.12;75.92;100965.09;5048935;28;20240;-74
2022/11/07 11:30:16;;;;;;;18.17;2.90;;;;;;;13.14;75.44;100968.47;5044303;28;20024;-76
2022/11/07 11:32:53;;;;;;;13.57;3.03;;;;;;;13.16;75.65;100962.59;5040415;28;20164;-74
2022/11/07 11:35:45;;;;;;;13.70;3.83;;;;;;;13.20;75.46;100955.38;5044904;28;20483;-75